createdAt,value
2024-02-08T00:00:10.699Z,0.30
2024-02-08T00:01:13.223Z,0.50
2024-02-08T00:02:15.699Z,0.40
2024-02-08T00:03:18.378Z,0.50
2024-02-08T00:04:20.675Z,0.30
2024-02-08T00:05:23.009Z,0.50
2024-02-08T00:06:25.497Z,0.50
2024-02-08T00:07:27.858Z,0.43
2024-02-08T00:08:30.150Z,0.40
2024-02-08T00:09:32.432Z,0.50
2024-02-08T00:10:34.770Z,0.40
2024-02-08T00:11:37.058Z,0.33
2024-02-08T00:12:40.379Z,0.60
2024-02-08T00:13:42.668Z,0.40
2024-02-08T00:14:45.186Z,0.30
2024-02-08T00:15:47.446Z,0.47
2024-02-08T00:16:49.736Z,0.40
2024-02-08T00:17:52.469Z,0.30
2024-02-08T00:18:57.561Z,0.37
2024-02-08T00:20:00.021Z,0.50
2024-02-08T00:21:02.329Z,0.40
2024-02-08T00:22:04.661Z,0.40
2024-02-08T00:23:09.396Z,0.50
2024-02-08T00:24:11.778Z,0.30
2024-02-08T00:25:14.276Z,0.40
2024-02-08T00:26:18.548Z,0.43
2024-02-08T00:27:20.846Z,0.30
2024-02-08T00:28:23.423Z,0.40
2024-02-08T00:29:26.902Z,0.40
2024-02-08T00:30:29.224Z,0.50
2024-02-08T00:31:31.491Z,0.50
2024-02-08T00:32:33.780Z,0.40
2024-02-08T00:33:36.051Z,0.30
2024-02-08T00:34:39.955Z,0.47
2024-02-08T00:35:42.481Z,0.47
2024-02-08T00:36:44.888Z,0.50
2024-02-08T00:37:51.073Z,0.37
2024-02-08T00:38:53.620Z,0.40
2024-02-08T00:39:55.917Z,0.40
2024-02-08T00:40:58.270Z,0.40
2024-02-08T00:42:00.616Z,0.40
2024-02-08T00:43:07.284Z,0.40
2024-02-08T00:44:11.244Z,0.40
2024-02-08T00:45:19.713Z,0.40
2024-02-08T00:46:22.471Z,0.33
2024-02-08T00:47:28.283Z,0.30
2024-02-08T00:48:30.864Z,0.40
2024-02-08T00:49:33.135Z,0.30
2024-02-08T00:50:35.930Z,0.53
2024-02-08T00:51:38.365Z,0.40
2024-02-08T00:52:42.222Z,0.30
2024-02-08T00:53:44.607Z,0.50
2024-02-08T00:54:46.922Z,0.30
2024-02-08T00:55:50.298Z,0.50
2024-02-08T00:56:54.416Z,0.30
2024-02-08T00:57:56.824Z,0.37
2024-02-08T00:58:59.151Z,0.50
2024-02-08T01:00:02.751Z,0.40
2024-02-08T01:01:08.773Z,0.30
2024-02-08T01:02:11.326Z,0.50
2024-02-08T01:03:15.032Z,0.27
2024-02-08T01:04:22.429Z,0.47
2024-02-08T01:05:24.904Z,0.50
2024-02-08T01:06:27.817Z,0.40
2024-02-08T01:07:33.321Z,0.30
2024-02-08T01:08:35.696Z,0.40
2024-02-08T01:09:38.070Z,0.40
2024-02-08T01:10:40.812Z,0.43
2024-02-08T01:11:43.155Z,0.50
2024-02-08T01:12:46.299Z,0.30
2024-02-08T01:13:48.636Z,0.50
2024-02-08T01:14:51.685Z,0.37
2024-02-08T01:15:55.083Z,0.47
2024-02-08T01:16:57.366Z,0.30
2024-02-08T01:17:59.955Z,0.40
2024-02-08T01:19:04.086Z,0.50
2024-02-08T01:20:08.085Z,0.43
2024-02-08T01:21:11.412Z,0.40
2024-02-08T01:22:19.689Z,0.40
2024-02-08T01:23:23.933Z,0.50
2024-02-08T01:24:26.542Z,0.30
2024-02-08T01:25:28.783Z,0.43
2024-02-08T01:26:32.425Z,0.50
2024-02-08T01:27:34.671Z,0.37
2024-02-08T01:28:37.080Z,0.40
2024-02-08T01:29:39.435Z,0.40
2024-02-08T01:30:41.682Z,0.33
2024-02-08T01:31:44.563Z,0.30
2024-02-08T01:32:49.522Z,0.50
2024-02-08T01:33:51.962Z,0.20
2024-02-08T01:34:55.307Z,0.40
2024-02-08T01:36:00.640Z,0.33
2024-02-08T01:37:04.877Z,0.40
2024-02-08T01:38:08.291Z,0.40
2024-02-08T01:39:14.198Z,0.50
2024-02-08T01:40:19.550Z,0.37
2024-02-08T01:41:22.930Z,0.50
2024-02-08T01:42:25.541Z,0.30
2024-02-08T01:43:32.948Z,0.30
2024-02-08T01:44:35.210Z,0.40
2024-02-08T01:45:39.715Z,0.37
2024-02-08T01:46:42.491Z,0.30
2024-02-08T01:47:48.918Z,0.50
2024-02-08T01:48:51.794Z,0.23
2024-02-08T01:49:54.549Z,0.57
2024-02-08T01:51:02.088Z,0.40
2024-02-08T01:52:05.342Z,0.40
2024-02-08T01:53:15.199Z,0.30
2024-02-08T01:54:20.545Z,0.40
2024-02-08T01:55:23.058Z,0.20
2024-02-08T01:56:25.402Z,0.33
2024-02-08T01:57:28.828Z,0.30
2024-02-08T01:58:33.918Z,0.40
2024-02-08T01:59:36.326Z,0.30
2024-02-08T02:00:39.585Z,0.30
2024-02-08T02:01:48.266Z,0.30
2024-02-08T02:02:54.996Z,0.30
2024-02-08T02:03:57.425Z,0.30
2024-02-08T02:04:59.944Z,0.30
2024-02-08T02:06:03.103Z,0.40
2024-02-08T02:07:05.701Z,0.50
2024-02-08T02:08:09.438Z,0.40
2024-02-08T02:09:24.006Z,0.30
2024-02-08T02:10:33.538Z,0.20
2024-02-08T02:11:52.698Z,0.40
2024-02-08T02:12:55.122Z,0.40
2024-02-08T02:13:59.332Z,0.27
2024-02-08T02:15:05.247Z,0.40
2024-02-08T02:16:07.892Z,0.50
2024-02-08T02:17:16.462Z,0.40
2024-02-08T02:18:19.790Z,0.40
2024-02-08T02:19:22.075Z,0.20
2024-02-08T02:20:25.636Z,0.20
2024-02-08T02:21:28.338Z,0.37
2024-02-08T02:22:33.204Z,0.30
2024-02-08T02:23:35.610Z,0.37
2024-02-08T02:24:41.414Z,0.30
2024-02-08T02:25:44.164Z,0.30
2024-02-08T02:26:47.122Z,0.37
2024-02-08T02:27:54.440Z,0.30
2024-02-08T02:28:57.162Z,0.30
2024-02-08T02:30:00.414Z,0.40
2024-02-08T02:31:07.139Z,0.37
2024-02-08T02:32:22.126Z,0.30
2024-02-08T02:33:26.583Z,0.30
2024-02-08T02:34:33.117Z,0.30
2024-02-08T02:35:35.822Z,0.27
2024-02-08T02:36:39.380Z,0.37
2024-02-08T02:37:41.646Z,0.40
2024-02-08T02:38:48.445Z,0.30
2024-02-08T02:39:50.791Z,0.50
2024-02-08T02:40:53.152Z,0.40
2024-02-08T02:41:55.562Z,0.30
2024-02-08T02:42:59.208Z,0.40
2024-02-08T02:44:01.531Z,0.30
2024-02-08T02:45:04.224Z,0.30
2024-02-08T02:46:11.317Z,0.30
2024-02-08T02:47:13.880Z,0.30
2024-02-08T02:48:16.241Z,0.30
2024-02-08T02:49:19.049Z,0.33
2024-02-08T02:50:22.857Z,0.30
2024-02-08T02:51:27.568Z,0.40
2024-02-08T02:52:29.891Z,0.30
2024-02-08T02:53:32.197Z,0.30
2024-02-08T02:54:38.023Z,0.30
2024-02-08T02:55:41.716Z,0.30
2024-02-08T02:56:48.626Z,0.30
2024-02-08T02:57:51.098Z,0.30
2024-02-08T02:58:53.492Z,0.40
2024-02-08T03:00:00.709Z,0.20
2024-02-08T03:01:06.708Z,0.20
2024-02-08T03:02:29.241Z,0.40
2024-02-08T03:03:38.815Z,0.30
2024-02-08T03:04:41.581Z,0.30
2024-02-08T03:05:47.129Z,0.30
2024-02-08T03:06:54.133Z,0.30
2024-02-08T03:07:56.481Z,0.30
2024-02-08T03:08:59.216Z,0.40
2024-02-08T03:10:01.609Z,0.30
2024-02-08T03:11:04.396Z,0.30
2024-02-08T03:12:11.010Z,0.30
2024-02-08T03:13:13.470Z,0.40
2024-02-08T03:14:23.429Z,0.20
2024-02-08T03:15:25.916Z,0.20
2024-02-08T03:16:30.199Z,0.30
2024-02-08T03:17:33.731Z,0.20
2024-02-08T03:18:39.706Z,0.30
2024-02-08T03:19:42.024Z,0.30
2024-02-08T03:20:46.449Z,0.30
2024-02-08T03:21:50.599Z,0.30
2024-02-08T03:22:53.308Z,0.23
2024-02-08T03:23:57.577Z,0.20
2024-02-08T03:25:00.185Z,0.37
2024-02-08T03:26:05.941Z,0.20
2024-02-08T03:27:14.490Z,0.20
2024-02-08T03:28:18.759Z,0.40
2024-02-08T03:29:23.045Z,0.30
2024-02-08T03:30:32.078Z,0.23
2024-02-08T03:31:34.656Z,0.30
2024-02-08T03:32:37.069Z,0.27
2024-02-08T03:33:39.395Z,0.40
2024-02-08T03:34:41.712Z,0.27
2024-02-08T03:35:47.141Z,0.40
2024-02-08T03:36:50.388Z,0.20
2024-02-08T03:37:56.692Z,0.30
2024-02-08T03:39:00.828Z,0.40
2024-02-08T03:40:04.827Z,0.40
2024-02-08T03:41:07.443Z,0.20
2024-02-08T03:42:12.401Z,0.27
2024-02-08T03:43:17.094Z,0.30
2024-02-08T03:44:22.417Z,0.27
2024-02-08T03:45:28.732Z,0.30
2024-02-08T03:46:32.953Z,0.20
2024-02-08T03:47:35.267Z,0.40
2024-02-08T03:48:38.717Z,0.33
2024-02-08T03:49:51.020Z,0.20
2024-02-08T03:50:53.410Z,0.13
2024-02-08T03:51:57.156Z,0.40
2024-02-08T03:53:00.701Z,0.30
2024-02-08T03:54:04.661Z,0.20
2024-02-08T03:55:10.116Z,0.20
2024-02-08T03:56:16.794Z,0.20
2024-02-08T03:57:20.268Z,0.30
2024-02-08T03:58:24.635Z,0.20
2024-02-08T03:59:28.045Z,0.23
2024-02-08T04:00:30.375Z,0.20
2024-02-08T04:01:32.800Z,0.20
2024-02-08T04:02:36.957Z,0.30
2024-02-08T04:03:54.579Z,0.30
2024-02-08T04:05:07.647Z,0.30
2024-02-08T04:06:28.013Z,0.30
2024-02-08T04:07:48.827Z,0.20
2024-02-08T04:09:09.626Z,0.30
2024-02-08T04:10:51.371Z,0.20
2024-02-08T04:12:12.655Z,0.30
2024-02-08T04:13:33.536Z,0.13
2024-02-08T04:14:55.667Z,0.30
2024-02-08T04:16:16.828Z,0.30
2024-02-08T04:17:37.918Z,0.30
2024-02-08T04:18:59.059Z,0.40
2024-02-08T04:20:20.235Z,0.20
2024-02-08T04:21:41.228Z,0.20
2024-02-08T04:23:02.349Z,0.40
2024-02-08T04:24:23.333Z,0.23
2024-02-08T04:25:44.396Z,0.17
2024-02-08T04:27:05.414Z,0.30
2024-02-08T04:28:27.364Z,0.33
2024-02-08T04:29:48.573Z,0.20
2024-02-08T04:31:09.643Z,0.20
2024-02-08T04:32:30.790Z,0.27
2024-02-08T04:33:51.807Z,0.27
2024-02-08T04:35:12.614Z,0.20
2024-02-08T04:36:33.401Z,0.20
2024-02-08T04:37:54.493Z,0.50
2024-02-08T04:39:15.553Z,0.20
2024-02-08T04:40:36.613Z,0.30
2024-02-08T04:42:01.181Z,0.20
2024-02-08T04:43:22.228Z,0.30
2024-02-08T04:44:43.306Z,0.40
2024-02-08T04:46:04.334Z,0.30
2024-02-08T04:47:25.431Z,0.20
2024-02-08T04:48:46.479Z,0.30
2024-02-08T04:50:07.324Z,0.30
2024-02-08T04:51:29.038Z,0.20
2024-02-08T04:52:49.963Z,0.20
2024-02-08T04:53:53.729Z,0.20
2024-02-08T04:54:58.778Z,0.20
2024-02-08T04:56:01.226Z,0.20
2024-02-08T04:57:04.653Z,0.27
2024-02-08T04:58:27.388Z,0.20
2024-02-08T04:59:29.363Z,0.37
2024-02-08T05:00:53.823Z,0.30
2024-02-08T05:01:58.812Z,0.30
2024-02-08T05:03:03.261Z,0.20
2024-02-08T05:04:06.114Z,0.30
2024-02-08T05:05:12.837Z,0.17
2024-02-08T05:06:20.437Z,0.20
2024-02-08T05:07:24.520Z,0.20
2024-02-08T05:08:27.359Z,0.40
2024-02-08T05:09:29.681Z,0.30
2024-02-08T05:10:32.243Z,0.20
2024-02-08T05:11:37.705Z,0.10
2024-02-08T05:12:40.390Z,0.20
2024-02-08T05:13:44.963Z,0.10
2024-02-08T05:14:47.319Z,0.30
2024-02-08T05:15:51.613Z,0.20
2024-02-08T05:16:56.918Z,0.20
2024-02-08T05:17:59.274Z,0.20
2024-02-08T05:19:01.720Z,0.23
2024-02-08T05:20:06.276Z,0.20
2024-02-08T05:21:10.819Z,0.13
2024-02-08T05:22:14.490Z,0.10
2024-02-08T05:23:16.992Z,0.30
2024-02-08T05:24:19.313Z,0.20
2024-02-08T05:25:25.541Z,0.20
2024-02-08T05:26:32.901Z,0.10
2024-02-08T05:27:35.215Z,0.20
2024-02-08T05:28:39.171Z,0.20
2024-02-08T05:29:43.818Z,0.20
2024-02-08T05:30:50.218Z,0.30
2024-02-08T05:31:52.696Z,0.30
2024-02-08T05:33:02.357Z,0.10
2024-02-08T05:34:07.249Z,0.13
2024-02-08T05:35:21.604Z,0.23
2024-02-08T05:36:24.755Z,0.20
2024-02-08T05:37:30.636Z,0.20
2024-02-08T05:38:38.686Z,0.10
2024-02-08T05:39:41.006Z,0.20
2024-02-08T05:40:44.762Z,0.10
2024-02-08T05:41:48.857Z,0.30
2024-02-08T05:42:52.690Z,0.37
2024-02-08T05:43:55.072Z,0.20
2024-02-08T05:45:17.256Z,0.20
2024-02-08T05:46:26.090Z,0.30
2024-02-08T05:47:28.712Z,0.33
2024-02-08T05:48:34.621Z,0.17
2024-02-08T05:49:37.260Z,0.20
2024-02-08T05:50:39.677Z,0.10
2024-02-08T05:51:50.583Z,0.10
2024-02-08T05:52:52.971Z,0.20
2024-02-08T05:53:55.238Z,0.30
2024-02-08T05:54:59.525Z,0.30
2024-02-08T05:56:01.901Z,0.27
2024-02-08T05:57:07.925Z,0.20
2024-02-08T05:58:17.762Z,0.20
2024-02-08T05:59:20.069Z,0.10
2024-02-08T06:00:37.216Z,0.20
2024-02-08T06:01:48.133Z,0.10
2024-02-08T06:02:50.754Z,0.20
2024-02-08T06:04:01.378Z,0.20
2024-02-08T06:05:10.787Z,0.20
2024-02-08T06:06:18.263Z,0.20
2024-02-08T06:07:21.635Z,0.20
2024-02-08T06:08:27.284Z,0.20
2024-02-08T06:09:48.147Z,0.10
2024-02-08T06:10:53.677Z,0.10
2024-02-08T06:12:09.794Z,0.10
2024-02-08T06:13:16.014Z,0.10
2024-02-08T06:14:24.273Z,0.10
2024-02-08T06:15:34.104Z,0.20
2024-02-08T06:16:47.927Z,0.20
2024-02-08T06:17:58.984Z,0.20
2024-02-08T06:19:06.503Z,0.10
2024-02-08T06:20:11.256Z,0.17
2024-02-08T06:21:14.850Z,0.30
2024-02-08T06:22:21.521Z,0.10
2024-02-08T06:23:28.390Z,0.10
2024-02-08T06:24:33.862Z,0.20
2024-02-08T06:25:37.679Z,0.20
2024-02-08T06:26:41.190Z,0.20
2024-02-08T06:27:43.471Z,0.20
2024-02-08T06:28:49.336Z,0.10
2024-02-08T06:29:51.931Z,0.30
2024-02-08T06:30:54.496Z,0.03
2024-02-08T06:32:09.999Z,0.20
2024-02-08T06:33:26.363Z,0.20
2024-02-08T06:34:43.697Z,0.20
2024-02-08T06:35:46.578Z,0.10
2024-02-08T06:37:17.373Z,0.13
2024-02-08T06:38:40.390Z,0.20
2024-02-08T06:39:46.187Z,0.20
2024-02-08T06:40:51.403Z,0.10
2024-02-08T06:41:54.662Z,0.30
2024-02-08T06:42:57.174Z,0.40
2024-02-08T06:44:19.415Z,0.30
2024-02-08T06:45:31.128Z,0.40
2024-02-08T06:46:57.942Z,0.60
2024-02-08T06:48:00.983Z,0.60
2024-02-08T06:49:22.341Z,0.80
2024-02-08T06:50:43.256Z,0.97
2024-02-08T06:52:04.334Z,0.83
2024-02-08T06:53:25.283Z,0.90
2024-02-08T06:54:46.218Z,1.07
2024-02-08T06:56:07.170Z,0.80
2024-02-08T06:57:28.075Z,0.93
2024-02-08T06:58:49.239Z,1.10
2024-02-08T07:00:10.204Z,1.20
2024-02-08T07:01:31.195Z,1.20
2024-02-08T07:02:52.158Z,1.00
2024-02-08T07:04:13.353Z,0.97
2024-02-08T07:05:34.257Z,1.00
2024-02-08T07:06:55.355Z,0.97
2024-02-08T07:08:16.256Z,1.27
2024-02-08T07:09:37.121Z,1.40
2024-02-08T07:10:58.144Z,1.07
2024-02-08T07:12:19.307Z,1.00
2024-02-08T07:13:40.376Z,1.10
2024-02-08T07:15:01.487Z,1.87
2024-02-08T07:16:22.570Z,1.83
2024-02-08T07:17:43.613Z,1.80
2024-02-08T07:19:07.518Z,1.70
2024-02-08T07:20:30.579Z,1.63
2024-02-08T07:21:51.413Z,1.33
2024-02-08T07:23:12.307Z,1.23
2024-02-08T07:24:37.797Z,1.23
2024-02-08T07:25:58.658Z,1.30
2024-02-08T07:27:19.546Z,1.20
2024-02-08T07:28:40.549Z,1.00
2024-02-08T07:30:02.134Z,0.90
2024-02-08T07:31:23.340Z,1.00
2024-02-08T07:32:44.400Z,1.03
2024-02-08T07:34:05.580Z,1.20
2024-02-08T07:35:26.319Z,1.00
2024-02-08T07:36:47.494Z,0.87
2024-02-08T07:37:49.754Z,1.10
2024-02-08T07:38:55.029Z,1.00
2024-02-08T07:40:03.971Z,0.70
2024-02-08T07:41:06.358Z,0.60
2024-02-08T07:42:21.269Z,0.90
2024-02-08T07:43:35.959Z,0.80
2024-02-08T07:44:40.246Z,0.73
2024-02-08T07:45:48.169Z,1.00
2024-02-08T07:46:55.956Z,0.90
2024-02-08T07:48:09.861Z,0.90
2024-02-08T07:49:16.395Z,1.13
2024-02-08T07:50:26.009Z,0.70
2024-02-08T07:51:30.138Z,1.10
2024-02-08T07:52:46.908Z,0.77
2024-02-08T07:53:53.285Z,0.83
2024-02-08T07:55:16.034Z,0.77
2024-02-08T07:56:25.365Z,0.73
2024-02-08T07:57:32.759Z,0.80
2024-02-08T07:58:38.215Z,0.83
2024-02-08T07:59:44.204Z,0.63
2024-02-08T08:00:46.638Z,0.80
2024-02-08T08:01:55.074Z,0.80
2024-02-08T08:02:57.549Z,0.80
2024-02-08T08:04:03.529Z,0.60
2024-02-08T08:05:16.311Z,0.83
2024-02-08T08:06:18.843Z,0.50
2024-02-08T08:07:24.890Z,0.43
2024-02-08T08:08:29.746Z,0.87
2024-02-08T08:09:32.086Z,0.60
2024-02-08T08:10:39.543Z,0.50
2024-02-08T08:11:46.502Z,0.43
2024-02-08T08:12:49.856Z,0.60
2024-02-08T08:13:55.102Z,0.60
2024-02-08T08:15:03.105Z,0.77
2024-02-08T08:16:24.387Z,0.60
2024-02-08T08:17:26.754Z,0.60
2024-02-08T08:18:31.302Z,0.40
2024-02-08T08:19:40.561Z,0.60
2024-02-08T08:20:58.453Z,0.60
2024-02-08T08:22:19.954Z,0.80
2024-02-08T08:23:28.668Z,0.60
2024-02-08T08:24:31.522Z,0.50
2024-02-08T08:25:54.127Z,0.43
2024-02-08T08:27:29.268Z,0.60
2024-02-08T08:28:32.395Z,0.60
2024-02-08T08:29:45.339Z,0.50
2024-02-08T08:30:55.299Z,0.50
2024-02-08T08:32:17.777Z,0.50
2024-02-08T08:33:40.112Z,0.60
2024-02-08T08:35:01.147Z,0.70
2024-02-08T08:36:21.293Z,0.40
2024-02-08T08:37:45.570Z,0.60
2024-02-08T08:38:47.872Z,0.60
2024-02-08T08:40:22.021Z,0.70
2024-02-08T08:41:25.644Z,0.40
2024-02-08T08:42:30.102Z,0.30
2024-02-08T08:43:35.955Z,0.67
2024-02-08T08:44:38.323Z,0.70
2024-02-08T08:45:42.294Z,0.50
2024-02-08T08:46:46.054Z,0.37
2024-02-08T08:47:52.949Z,0.70
2024-02-08T08:48:56.384Z,0.77
2024-02-08T08:49:59.360Z,0.50
2024-02-08T08:51:12.633Z,0.30
2024-02-08T08:52:24.768Z,0.47
2024-02-08T08:53:29.206Z,0.50
2024-02-08T08:54:34.205Z,0.30
2024-02-08T08:55:41.074Z,0.40
2024-02-08T08:56:43.892Z,1.00
2024-02-08T08:57:48.847Z,1.30
2024-02-08T08:58:51.826Z,2.10
2024-02-08T08:59:57.447Z,3.10
2024-02-08T09:01:13.110Z,3.30
2024-02-08T09:02:16.018Z,3.13
2024-02-08T09:03:28.101Z,3.33
2024-02-08T09:04:34.409Z,2.93
2024-02-08T09:05:38.055Z,2.90
2024-02-08T09:06:43.802Z,2.70
2024-02-08T09:07:46.608Z,2.77
2024-02-08T09:08:58.379Z,2.63
2024-02-08T09:10:04.107Z,3.33
2024-02-08T09:11:07.280Z,2.50
2024-02-08T09:12:12.548Z,2.43
2024-02-08T09:13:19.829Z,2.37
2024-02-08T09:14:22.681Z,2.60
2024-02-08T09:15:29.489Z,2.37
2024-02-08T09:16:37.897Z,2.90
2024-02-08T09:17:53.180Z,2.83
2024-02-08T09:19:00.441Z,2.40
2024-02-08T09:20:21.028Z,2.47
2024-02-08T09:21:27.250Z,2.00
2024-02-08T09:22:35.687Z,2.40
2024-02-08T09:23:39.658Z,2.40
2024-02-08T09:24:45.791Z,2.60
2024-02-08T09:25:48.785Z,2.30
2024-02-08T09:27:12.997Z,2.13
2024-02-08T09:28:26.178Z,2.00
2024-02-08T09:29:40.005Z,2.00
2024-02-08T09:30:53.827Z,2.30
2024-02-08T09:32:00.387Z,1.90
2024-02-08T09:33:04.890Z,2.37
2024-02-08T09:34:16.806Z,1.80
2024-02-08T09:35:20.014Z,2.00
2024-02-08T09:36:22.802Z,2.00
2024-02-08T09:37:25.131Z,2.30
2024-02-08T09:38:29.551Z,2.00
2024-02-08T09:39:51.843Z,1.77
2024-02-08T09:40:54.556Z,1.80
2024-02-08T09:41:56.856Z,1.77
2024-02-08T09:42:59.424Z,1.80
2024-02-08T09:44:10.524Z,1.90
2024-02-08T09:45:35.853Z,1.70
2024-02-08T09:46:39.598Z,1.83
2024-02-08T09:47:52.968Z,2.03
2024-02-08T09:49:15.110Z,1.90
2024-02-08T09:50:32.449Z,1.90
2024-02-08T09:51:36.656Z,1.73
2024-02-08T09:52:50.848Z,1.67
2024-02-08T09:53:55.442Z,1.60
2024-02-08T09:55:07.329Z,1.63
2024-02-08T09:56:22.498Z,1.90
2024-02-08T09:57:32.509Z,2.07
2024-02-08T09:58:39.320Z,1.40
2024-02-08T10:00:01.359Z,1.60
2024-02-08T10:01:23.002Z,1.97
2024-02-08T10:02:34.167Z,1.53
2024-02-08T10:03:38.960Z,1.47
2024-02-08T10:04:44.110Z,1.67
2024-02-08T10:05:52.448Z,1.67
2024-02-08T10:06:58.053Z,1.53
2024-02-08T10:08:07.545Z,1.70
2024-02-08T10:09:31.024Z,1.70
2024-02-08T10:11:00.100Z,1.30
2024-02-08T10:12:08.726Z,1.50
2024-02-08T10:13:28.129Z,1.73
2024-02-08T10:14:34.354Z,1.40
2024-02-08T10:15:45.637Z,1.27
2024-02-08T10:16:51.676Z,1.50
2024-02-08T10:18:10.291Z,1.50
2024-02-08T10:19:30.370Z,1.50
2024-02-08T10:20:33.364Z,1.23
2024-02-08T10:21:37.641Z,1.40
2024-02-08T10:22:54.868Z,1.47
2024-02-08T10:24:14.050Z,1.70
2024-02-08T10:25:36.221Z,1.03
2024-02-08T10:26:46.989Z,1.30
2024-02-08T10:27:56.897Z,1.30
2024-02-08T10:29:08.544Z,1.30
2024-02-08T10:30:12.208Z,1.40
2024-02-08T10:31:23.895Z,1.90
2024-02-08T10:32:30.525Z,1.40
2024-02-08T10:33:40.206Z,1.47
2024-02-08T10:34:44.947Z,1.20
2024-02-08T10:35:48.904Z,1.37
2024-02-08T10:36:51.524Z,1.40
2024-02-08T10:38:09.038Z,1.50
2024-02-08T10:39:40.858Z,1.27
2024-02-08T10:40:48.247Z,1.00
2024-02-08T10:42:00.581Z,1.20
2024-02-08T10:43:18.280Z,1.50
2024-02-08T10:44:25.432Z,1.10
2024-02-08T10:45:33.712Z,1.27
2024-02-08T10:46:43.402Z,1.00
2024-02-08T10:47:49.526Z,0.97
2024-02-08T10:48:52.919Z,1.23
2024-02-08T10:49:56.019Z,1.10
2024-02-08T10:51:03.558Z,1.33
2024-02-08T10:52:06.653Z,1.30
2024-02-08T10:53:17.409Z,1.17
2024-02-08T10:54:24.491Z,1.10
2024-02-08T10:55:38.400Z,1.20
2024-02-08T10:57:07.723Z,1.20
2024-02-08T10:58:12.053Z,1.03
2024-02-08T10:59:53.191Z,1.20
2024-02-08T11:01:14.324Z,1.40
2024-02-08T11:02:46.450Z,1.23
2024-02-08T11:03:54.677Z,1.20
2024-02-08T11:05:14.160Z,0.90
2024-02-08T11:06:36.984Z,1.10
2024-02-08T11:07:46.400Z,1.27
2024-02-08T11:08:52.146Z,1.20
2024-02-08T11:09:54.647Z,1.40
2024-02-08T11:11:04.860Z,1.20
2024-02-08T11:12:18.398Z,1.13
2024-02-08T11:13:30.695Z,1.00
2024-02-08T11:14:52.357Z,1.10
2024-02-08T11:15:55.139Z,0.93
2024-02-08T11:17:05.551Z,1.07
2024-02-08T11:18:30.471Z,0.87
2024-02-08T11:19:36.034Z,1.00
2024-02-08T11:20:44.638Z,1.10
2024-02-08T11:21:50.698Z,1.20
2024-02-08T11:22:58.917Z,1.58
2024-02-08T11:24:02.538Z,1.30
2024-02-08T11:25:28.984Z,1.00
2024-02-08T11:26:32.966Z,0.90
2024-02-08T11:27:36.056Z,0.80
2024-02-08T11:28:55.083Z,1.30
2024-02-08T11:29:58.280Z,0.80
2024-02-08T11:31:07.280Z,0.97
2024-02-08T11:32:18.575Z,1.00
2024-02-08T11:33:34.602Z,0.90
2024-02-08T11:34:46.151Z,1.20
2024-02-08T11:35:57.985Z,1.07
2024-02-08T11:37:01.363Z,1.10
2024-02-08T11:38:18.204Z,0.93
2024-02-08T11:39:28.106Z,1.00
2024-02-08T11:40:37.291Z,0.90
2024-02-08T11:41:44.019Z,0.70
2024-02-08T11:42:46.469Z,1.13
2024-02-08T11:44:03.618Z,0.90
2024-02-08T11:45:10.370Z,0.83
2024-02-08T11:46:21.503Z,1.13
2024-02-08T11:47:24.873Z,1.23
2024-02-08T11:48:32.777Z,0.90
2024-02-08T11:49:37.243Z,0.73
2024-02-08T11:50:40.988Z,0.73
2024-02-08T11:51:46.747Z,1.00
2024-02-08T11:52:59.561Z,0.90
2024-02-08T11:54:10.191Z,1.00
2024-02-08T11:55:15.645Z,0.67
2024-02-08T11:56:21.567Z,1.00
2024-02-08T11:57:24.184Z,1.00
2024-02-08T11:58:31.252Z,0.90
2024-02-08T11:59:39.518Z,0.70
2024-02-08T12:00:49.978Z,1.10
2024-02-08T12:01:54.197Z,0.90
2024-02-08T12:02:59.741Z,0.83
2024-02-08T12:04:03.449Z,0.50
2024-02-08T12:05:06.256Z,0.80
2024-02-08T12:06:23.594Z,0.67
2024-02-08T12:07:26.096Z,0.90
2024-02-08T12:08:37.125Z,0.97
2024-02-08T12:09:45.892Z,0.90
2024-02-08T12:10:52.038Z,0.90
2024-02-08T12:11:56.691Z,0.73
2024-02-08T12:13:01.149Z,1.00
2024-02-08T12:14:15.630Z,0.90
2024-02-08T12:15:27.409Z,1.00
2024-02-08T12:16:30.986Z,0.93
2024-02-08T12:17:34.667Z,0.60
2024-02-08T12:18:37.677Z,0.90
2024-02-08T12:19:40.437Z,1.07
2024-02-08T12:20:45.016Z,0.83
2024-02-08T12:22:06.699Z,0.70
2024-02-08T12:23:09.102Z,0.70
2024-02-08T12:24:16.735Z,0.80
2024-02-08T12:25:19.227Z,0.90
2024-02-08T12:26:24.801Z,0.97
2024-02-08T12:27:30.353Z,0.67
2024-02-08T12:28:36.490Z,0.60
2024-02-08T12:29:43.347Z,0.80
2024-02-08T12:30:45.851Z,0.93
2024-02-08T12:31:49.435Z,0.70
2024-02-08T12:32:53.065Z,0.97
2024-02-08T12:33:57.086Z,0.80
2024-02-08T12:35:14.271Z,0.53
2024-02-08T12:36:19.663Z,0.83
2024-02-08T12:37:29.388Z,0.93
2024-02-08T12:38:32.154Z,0.77
2024-02-08T12:39:44.347Z,0.63
2024-02-08T12:40:48.473Z,0.87
2024-02-08T12:41:54.792Z,0.63
2024-02-08T12:43:09.454Z,0.87
2024-02-08T12:44:14.553Z,0.60
2024-02-08T12:45:18.988Z,0.70
2024-02-08T12:46:22.080Z,0.57
2024-02-08T12:47:24.641Z,0.50
2024-02-08T12:48:30.311Z,0.83
2024-02-08T12:49:34.995Z,0.70
2024-02-08T12:50:39.416Z,0.63
2024-02-08T12:51:42.474Z,0.70
2024-02-08T12:52:44.979Z,1.00
2024-02-08T12:53:50.572Z,1.00
2024-02-08T12:54:56.557Z,0.70
2024-02-08T12:56:12.503Z,0.70
2024-02-08T12:57:16.795Z,0.80
2024-02-08T12:58:19.973Z,0.70
2024-02-08T12:59:24.615Z,0.67
2024-02-08T13:00:27.164Z,0.77
2024-02-08T13:01:40.950Z,0.63
2024-02-08T13:02:43.406Z,0.87
2024-02-08T13:03:46.951Z,0.70
2024-02-08T13:04:55.255Z,0.57
2024-02-08T13:05:57.592Z,0.60
2024-02-08T13:06:59.900Z,0.73
2024-02-08T13:08:02.296Z,0.60
2024-02-08T13:09:27.247Z,0.90
2024-02-08T13:10:34.584Z,0.73
2024-02-08T13:11:38.455Z,0.50
2024-02-08T13:12:41.080Z,0.60
2024-02-08T13:13:43.831Z,0.70
2024-02-08T13:14:52.413Z,0.40
2024-02-08T13:16:00.541Z,0.97
2024-02-08T13:17:05.913Z,0.70
2024-02-08T13:18:10.939Z,0.77
2024-02-08T13:19:20.659Z,0.57
2024-02-08T13:20:24.936Z,0.60
2024-02-08T13:21:27.455Z,0.40
2024-02-08T13:22:32.503Z,0.90
2024-02-08T13:23:36.216Z,0.70
2024-02-08T13:24:38.470Z,0.67
2024-02-08T13:25:42.477Z,0.93
2024-02-08T13:26:44.899Z,0.80
2024-02-08T13:27:47.442Z,0.93
2024-02-08T13:28:50.007Z,1.07
2024-02-08T13:29:56.028Z,0.80
2024-02-08T13:30:58.595Z,0.50
2024-02-08T13:32:02.605Z,0.90
2024-02-08T13:33:06.579Z,0.70
2024-02-08T13:34:10.742Z,0.80
2024-02-08T13:35:19.435Z,0.70
2024-02-08T13:36:26.335Z,0.37
2024-02-08T13:37:28.775Z,0.53
2024-02-08T13:38:31.738Z,0.60
2024-02-08T13:39:34.051Z,0.40
2024-02-08T13:40:43.865Z,0.60
2024-02-08T13:41:47.543Z,0.50
2024-02-08T13:42:55.317Z,0.80
2024-02-08T13:43:58.494Z,0.70
2024-02-08T13:45:04.572Z,0.47
2024-02-08T13:46:11.764Z,0.60
2024-02-08T13:47:20.176Z,1.00
2024-02-08T13:48:30.222Z,0.73
2024-02-08T13:49:36.318Z,0.43
2024-02-08T13:50:38.779Z,0.50
2024-02-08T13:51:41.760Z,0.60
2024-02-08T13:52:45.614Z,0.60
2024-02-08T13:53:47.914Z,0.53
2024-02-08T13:54:50.282Z,0.60
2024-02-08T13:55:56.684Z,0.70
2024-02-08T13:57:02.469Z,0.60
2024-02-08T13:58:08.026Z,0.60
2024-02-08T13:59:15.946Z,0.77
2024-02-08T14:00:27.715Z,0.80
2024-02-08T14:01:30.298Z,0.60
2024-02-08T14:02:37.693Z,0.60
2024-02-08T14:03:40.156Z,0.93
2024-02-08T14:04:51.306Z,0.73
2024-02-08T14:05:56.422Z,0.50
2024-02-08T14:06:59.095Z,0.60
2024-02-08T14:08:01.342Z,0.40
2024-02-08T14:09:20.383Z,1.03
2024-02-08T14:10:32.709Z,0.70
2024-02-08T14:11:40.262Z,0.63
2024-02-08T14:12:46.515Z,0.63
2024-02-08T14:13:52.130Z,0.70
2024-02-08T14:14:56.348Z,0.93
2024-02-08T14:16:07.519Z,0.70
2024-02-08T14:17:21.368Z,0.70
2024-02-08T14:18:28.377Z,0.80
2024-02-08T14:19:37.390Z,0.57
2024-02-08T14:20:45.114Z,0.80
2024-02-08T14:21:47.511Z,0.80
2024-02-08T14:22:52.963Z,0.87
2024-02-08T14:24:00.852Z,0.70
2024-02-08T14:25:09.605Z,0.90
2024-02-08T14:26:18.178Z,0.60
2024-02-08T14:27:24.423Z,0.80
2024-02-08T14:28:26.744Z,0.60
2024-02-08T14:29:29.038Z,0.60
2024-02-08T14:30:35.315Z,0.50
2024-02-08T14:31:40.524Z,0.60
2024-02-08T14:32:43.812Z,0.60
2024-02-08T14:33:49.279Z,0.67
2024-02-08T14:34:51.856Z,0.60
2024-02-08T14:35:55.311Z,0.80
2024-02-08T14:36:58.803Z,0.70
2024-02-08T14:38:01.460Z,0.60
2024-02-08T14:39:23.706Z,0.60
2024-02-08T14:40:29.156Z,0.80
2024-02-08T14:41:35.118Z,1.10
2024-02-08T14:42:39.913Z,0.80
2024-02-08T14:43:47.667Z,0.93
2024-02-08T14:44:55.134Z,1.10
2024-02-08T14:45:57.469Z,1.20
2024-02-08T14:47:07.379Z,1.07
2024-02-08T14:48:12.873Z,1.20
2024-02-08T14:49:30.465Z,1.07
2024-02-08T14:50:59.670Z,1.17
2024-02-08T14:52:04.530Z,1.33
2024-02-08T14:53:07.394Z,1.07
2024-02-08T14:54:13.255Z,1.20
2024-02-08T14:55:22.817Z,1.60
2024-02-08T14:56:29.155Z,1.03
2024-02-08T14:57:40.418Z,1.30
2024-02-08T14:58:57.631Z,1.10
2024-02-08T15:00:19.934Z,1.50
2024-02-08T15:01:41.363Z,1.27
2024-02-08T15:02:56.604Z,1.20
2024-02-08T15:03:59.945Z,1.43
2024-02-08T15:05:03.660Z,1.30
2024-02-08T15:06:29.219Z,1.40
2024-02-08T15:07:52.441Z,1.20
2024-02-08T15:08:56.251Z,1.37